Time;durP1;ratioP1;P1;durP2;ratioP2;P2;SDS_P1;SDS_P2;PMS_P1;PMS_P2;Temp;Humidity;BMP_temperature;BMP_pressure;BME280_temperature;BME280_humidity;BME280_pressure;Samples;Min_cycle;Max_cycle;Signal;HPM_P1;HPM_P2
2022/01/26 00:05:47;;;;;;;;;;;2.30;99.90;;;1.20;100.00;102173.78;4991041;28;19926;-74
2022/01/26 00:06:38;;;;;;;;;;;2.20;99.90;;;1.03;100.00;102166.97;5009081;28;20036;-74
2022/01/26 00:09:06;;;;;;;;;;;2.40;99.90;;;1.02;100.00;102171.28;5010451;28;20475;-74
2022/01/26 00:11:35;;;;;;;;;;;1.90;99.90;;;1.08;100.00;102163.78;4993128;28;19929;-74
2022/01/26 00:14:08;;;;;;;;;;;2.50;99.90;;;1.13;100.00;102158.78;4991863;28;19940;-74
2022/01/26 00:16:42;;;;;;;;;;;1.80;99.90;;;1.15;100.00;102158.84;5009279;28;20371;-75
2022/01/26 00:19:16;;;;;;;;;;;1.90;99.90;;;1.15;100.00;102161.44;5009169;28;19930;-74
2022/01/26 00:21:53;;;;;;;;;;;2.90;99.90;;;1.16;100.00;102156.31;4992706;28;19957;-73
2022/01/26 00:27:34;;;;;;;;;;;1.70;99.90;;;0.97;100.00;102152.03;5009064;28;19925;-74
2022/01/26 00:31:12;;;;;;;;;;;1.80;99.90;;;1.10;100.00;102158.66;5010313;28;19929;-74
2022/01/26 00:34:17;;;;;;;;;;;1.60;99.90;;;1.02;100.00;102153.16;5008256;28;20668;-74
2022/01/26 00:38:40;;;;;;;;;;;1.80;99.90;;;1.01;100.00;102155.66;4995471;28;19929;-74
2022/01/26 00:41:12;;;;;;;;;;;2.00;99.90;;;1.10;100.00;102153.47;5008449;28;19930;-76
2022/01/26 00:43:47;;;;;;;;;;;1.60;99.90;;;1.07;100.00;102145.53;5007105;28;19929;-75
2022/01/26 00:46:14;;;;;;;;;;;3.80;99.90;;;1.03;100.00;102141.06;5009812;28;20596;-74
2022/01/26 00:48:43;;;;;;;;;;;1.80;99.90;;;1.01;100.00;102143.56;5008607;28;19934;-74
2022/01/26 00:51:14;;;;;;;;;;;1.80;99.90;;;1.00;100.00;102146.97;5008317;28;19926;-74
2022/01/26 00:53:46;;;;;;;;;;;1.70;99.90;;;0.93;100.00;102143.22;5007119;28;19935;-74
2022/01/26 00:56:13;;;;;;;;;;;1.70;99.90;;;0.97;100.00;102147.75;5008218;28;19925;-74
2022/01/26 00:58:41;;;;;;;;;;;1.70;99.90;;;0.97;100.00;102152.94;5008521;28;19932;-75
2022/01/26 01:01:08;;;;;;;;;;;3.90;99.90;;;1.02;100.00;102155.75;5008172;28;19929;-74
2022/01/26 01:03:41;;;;;;;;;;;1.80;99.90;;;1.08;100.00;102161.19;5008155;28;20341;-75
2022/01/26 01:08:42;;;;;;;;;;;1.70;99.90;;;1.06;100.00;102154.16;5008146;28;20169;-76
2022/01/26 01:11:10;;;;;;;;;;;2.60;99.90;;;1.04;100.00;102164.47;5008080;28;20448;-75
2022/01/26 01:13:39;;;;;;;;;;;1.80;99.90;;;1.02;100.00;102158.31;5006622;28;19930;-76
2022/01/26 01:16:09;;;;;;;;;;;1.60;99.90;;;1.05;100.00;102158.47;5009258;28;19929;-76
2022/01/26 01:22:01;;;;;;;;;;;2.60;99.90;;;1.14;100.00;102157.97;5008063;28;20310;-76
2022/01/26 01:24:10;;;;;;;;;;;1.90;99.90;;;1.13;100.00;102158.78;5006518;28;19925;-75
2022/01/26 01:29:31;;;;;;;;;;;1.80;99.90;;;1.08;100.00;102168.97;5007884;28;20453;-76
2022/01/26 01:32:00;;;;;;;;;;;3.30;99.90;;;1.19;100.00;102173.75;5025038;28;19940;-76
2022/01/26 01:34:36;;;;;;;;;;;1.80;99.90;;;1.15;100.00;102170.13;5006390;28;19926;-76
2022/01/26 01:37:07;;;;;;;;;;;1.90;99.90;;;1.18;100.00;102169.38;5008978;28;19941;-75
2022/01/26 01:39:35;;;;;;;;;;;1.70;99.90;;;1.15;100.00;102169.22;4991675;28;19936;-75
2022/01/26 01:42:04;;;;;;;;;;;2.00;99.90;;;1.16;100.00;102169.28;4991359;28;20345;-75
2022/01/26 01:44:31;;;;;;;;;;;1.90;99.90;;;1.17;100.00;102168.47;5022483;28;19933;-76
2022/01/26 01:46:59;;;;;;;;;;;5.00;99.90;;;1.18;100.00;102167.66;5023761;28;20453;-76
2022/01/26 01:49:26;;;;;;;;;;;1.80;99.90;;;1.16;100.00;102166.69;4991149;28;19932;-75
2022/01/26 01:52:02;;;;;;;;;;;1.80;99.90;;;1.12;100.00;102173.44;4991013;28;19944;-76
2022/01/26 01:54:29;;;;;;;;;;;1.70;99.90;;;1.06;100.00;102165.41;4991038;28;19929;-75
2022/01/26 01:56:59;;;;;;;;;;;1.80;99.90;;;1.03;100.00;102164.38;5007070;28;19932;-76
2022/01/26 01:59:32;;;;;;;;;;;1.90;99.90;;;1.06;100.00;102168.00;5007329;28;19926;-75
2022/01/26 02:02:00;;;;;;;;;;;1.80;99.90;;;1.06;100.00;102165.41;5023861;28;19964;-76
2022/01/26 02:04:27;;;;;;;;;;;3.40;99.90;;;1.04;100.00;102168.75;5007145;28;19926;-75
2022/01/26 02:06:54;;;;;;;;;;;2.70;99.90;;;1.03;100.00;102172.16;5007196;28;19933;-75
2022/01/26 02:09:24;;;;;;;;;;;1.60;99.90;;;1.03;100.00;102179.94;5008080;28;19936;-76
2022/01/26 02:12:14;;;;;;;;;;;1.70;99.90;;;1.03;100.00;102185.13;5008366;28;19922;-76
2022/01/26 02:14:47;;;;;;;;;;;1.60;99.90;;;1.15;100.00;102182.19;4990607;28;19949;-75
2022/01/26 02:55:56;;;;;;;;;;;3.40;99.90;;;1.24;100.00;102156.66;5010776;28;20207;-74
2022/01/26 02:58:49;;;;;;;;;;;2.00;99.90;;;1.20;100.00;102159.94;5010648;28;19929;-75
2022/01/26 03:06:32;;;;;;;;;;;2.00;99.90;;;1.21;100.00;102152.22;5011708;28;19929;-75
2022/01/26 03:09:06;;;;;;;;;;;1.90;99.90;;;1.24;100.00;102151.47;5008339;28;19933;-75
2022/01/26 03:11:51;;;;;;;;;;;1.80;99.90;;;1.27;100.00;102155.09;5008872;28;20395;-74
2022/01/26 03:20:07;;;;;;;;;;;2.00;99.90;;;1.22;100.00;102148.81;4974704;28;19976;-76
2022/01/26 03:33:57;;;;;;;;;;;1.90;99.90;;;1.18;100.00;102149.50;5007210;28;20025;-74
2022/01/26 03:36:27;;;;;;;;;;;4.10;99.90;;;1.16;100.00;102145.97;5007817;28;19934;-76
2022/01/26 03:39:02;;;;;;;;;;;1.90;99.90;;;1.19;100.00;102151.28;4992277;28;19929;-75
2022/01/26 03:43:59;;;;;;;;;;;1.80;99.90;;;1.17;100.00;102149.41;5008168;28;19933;-76
2022/01/26 03:46:28;;;;;;;;;;;1.50;99.90;;;1.18;100.00;102146.91;5026641;28;20445;-76
2022/01/26 03:48:58;;;;;;;;;;;1.90;99.90;;;1.20;100.00;102147.84;5010903;28;19929;-75
2022/01/26 03:51:25;;;;;;;;;;;1.80;99.90;;;1.22;100.00;102140.16;5009449;28;20290;-78
2022/01/26 03:53:52;;;;;;;;;;;3.50;99.90;;;1.20;100.00;102139.22;5008261;28;19933;-76
2022/01/26 03:56:19;;;;;;;;;;;1.70;99.90;;;1.24;100.00;102143.69;5009226;28;20399;-76
2022/01/26 03:58:49;;;;;;;;;;;2.90;99.90;;;1.21;100.00;102135.78;5009426;28;19937;-76
2022/01/26 04:01:34;;;;;;;;;;;1.70;99.90;;;1.20;100.00;102141.81;5009019;28;20004;-76
2022/01/26 04:04:02;;;;;;;;;;;1.90;99.90;;;1.17;100.00;102139.03;5009109;28;19948;-76
2022/01/26 04:06:31;;;;;;;;;;;1.90;99.90;;;1.21;100.00;102144.44;5009243;28;19926;-75
2022/01/26 04:09:01;;;;;;;;;;;1.90;99.90;;;1.21;100.00;102135.78;5025801;28;19925;-76
2022/01/26 04:11:35;;;;;;;;;;;1.90;99.90;;;1.23;100.00;102142.78;5009076;28;20003;-75
2022/01/26 04:14:10;;;;;;;;;;;3.60;99.90;;;1.23;100.00;102147.13;5025513;28;19937;-75
2022/01/26 04:16:38;;;;;;;;;;;1.80;99.90;;;1.23;100.00;102154.88;5026226;28;19936;-75
2022/01/26 04:19:09;;;;;;;;;;;1.90;99.90;;;1.23;100.00;102147.97;5009183;28;19925;-75
2022/01/26 04:24:34;;;;;;;;;;;1.90;99.90;;;1.23;100.00;102136.75;5008869;28;19972;-75
2022/01/26 04:27:15;;;;;;;;;;;2.00;99.90;;;1.08;100.00;102136.94;5008756;28;19930;-75
2022/01/26 04:29:42;;;;;;;;;;;1.90;99.90;;;1.16;100.00;102143.38;5042161;28;19934;-75
2022/01/26 04:32:10;;;;;;;;;;;2.00;99.90;;;1.16;100.00;102130.41;5008686;28;19925;-76
2022/01/26 04:34:37;;;;;;;;;;;2.00;99.90;;;1.19;100.00;102134.84;5007638;28;19930;-76
2022/01/26 04:39:55;;;;;;;;;;;1.90;99.90;;;1.25;100.00;102136.00;5008681;28;19926;-75
2022/01/26 04:42:45;;;;;;;;;;;2.00;99.90;;;1.34;100.00;102139.78;5009287;28;19938;-75
2022/01/26 04:45:12;;;;;;;;;;;1.90;99.90;;;1.30;100.00;102140.47;5009511;28;20450;-75
2022/01/26 04:47:39;;;;;;;;;;;1.80;99.90;;;1.32;100.00;102144.03;5008842;28;19929;-76
2022/01/26 04:50:08;;;;;;;;;;;2.40;99.90;;;1.27;100.00;102138.63;5008753;28;19929;-76
2022/01/26 04:52:36;;;;;;;;;;;2.00;99.90;;;1.30;100.00;102143.06;5040708;28;19929;-76
2022/01/26 04:55:03;;;;;;;;;;;1.90;99.90;;;1.31;100.00;102140.53;5007822;28;20465;-75
2022/01/26 04:57:30;;;;;;;;;;;1.90;99.90;;;1.31;100.00;102131.88;5008468;28;19932;-75
2022/01/26 04:59:57;;;;;;;;;;;1.80;99.90;;;1.30;100.00;102135.28;5009734;28;20326;-76
2022/01/26 05:02:24;;;;;;;;;;;1.90;99.90;;;1.24;100.00;102126.41;5005422;28;19926;-75
2022/01/26 05:04:51;;;;;;;;;;;1.90;99.90;;;1.26;100.00;102142.94;5008543;28;20462;-75
2022/01/26 05:07:18;;;;;;;;;;;4.60;99.90;;;1.27;100.00;102138.63;5009816;28;19983;-75
2022/01/26 05:10:04;;;;;;;;;;;2.10;99.90;;;1.22;100.00;102132.38;5041542;28;19984;-75
2022/01/26 05:12:32;;;;;;;;;;;1.90;99.90;;;1.21;100.00;102136.66;5046657;28;20035;-74
2022/01/26 05:14:59;;;;;;;;;;;5.00;99.90;;;1.22;100.00;102141.03;5015811;28;20415;-75
2022/01/26 05:17:26;;;;;;;;;;;3.50;99.90;;;1.23;100.00;102149.72;4989660;28;19929;-75
2022/01/26 05:19:57;;;;;;;;;;;2.20;99.90;;;1.17;100.00;102146.81;4991329;28;20436;-77
2022/01/26 05:22:24;;;;;;;;;;;2.00;99.90;;;1.18;100.00;102148.63;4991007;28;20375;-76
2022/01/26 05:24:52;;;;;;;;;;;3.00;99.90;;;1.12;100.00;102146.66;4990014;28;19929;-76
2022/01/26 05:27:22;;;;;;;;;;;1.80;99.90;;;1.17;100.00;102160.69;5021167;28;19930;-77
2022/01/26 05:29:49;;;;;;;;;;;1.90;99.90;;;1.14;100.00;102147.59;5021611;28;19934;-77
2022/01/26 05:32:16;;;;;;;;;;;2.00;99.90;;;1.13;100.00;102148.44;5004731;28;19937;-76
2022/01/26 05:34:46;;;;;;;;;;;2.00;99.90;;;1.11;100.00;102150.94;5021508;28;20461;-76
2022/01/26 05:37:13;;;;;;;;;;;1.90;99.90;;;1.04;100.00;102142.81;5023362;28;20358;-77
2022/01/26 05:39:43;;;;;;;;;;;1.90;99.90;;;1.04;100.00;102142.81;5040549;28;19933;-76
2022/01/26 05:42:10;;;;;;;;;;;1.90;99.90;;;1.06;100.00;102147.25;5032016;28;20432;-77
2022/01/26 05:44:37;;;;;;;;;;;2.10;99.90;;;1.04;100.00;102141.13;5008952;28;19952;-76
2022/01/26 05:47:08;;;;;;;;;;;2.00;99.90;;;1.04;100.00;102137.63;5007300;28;19932;-77
2022/01/26 05:49:35;;;;;;;;;;;1.90;99.90;;;1.01;100.00;102135.78;5009004;28;19930;-77
2022/01/26 05:52:02;;;;;;;;;;;1.90;99.90;;;1.01;100.00;102119.38;5006635;28;19933;-77
2022/01/26 05:54:29;;;;;;;;;;;1.80;99.90;;;0.99;100.00;102129.66;5007331;28;19976;-77
2022/01/26 05:56:56;;;;;;;;;;;2.10;99.90;;;1.02;100.00;102127.22;5007050;28;19933;-77
2022/01/26 05:59:23;;;;;;;;;;;1.80;99.90;;;0.94;100.00;102115.63;5007791;28;19936;-76
2022/01/26 06:01:50;;;;;;;;;;;1.80;99.90;;;0.94;100.00;102121.69;5023601;28;20350;-76
2022/01/26 06:04:18;;;;;;;;;;;4.40;99.90;;;0.91;100.00;102124.13;5002700;28;19925;-78
2022/01/26 06:06:45;;;;;;;;;;;1.70;99.90;;;0.92;100.00;102118.13;5006785;28;19929;-76
2022/01/26 06:09:12;;;;;;;;;;;1.80;99.90;;;0.85;100.00;102118.69;5008502;28;20580;-76
2022/01/26 06:11:39;;;;;;;;;;;1.80;99.90;;;0.84;100.00;102115.19;5011083;28;19983;-76
2022/01/26 06:14:06;;;;;;;;;;;1.70;99.90;;;0.84;100.00;102125.56;5008031;28;19925;-75
2022/01/26 06:16:33;;;;;;;;;;;1.70;99.90;;;0.87;100.00;102123.97;5012114;28;19929;-76
2022/01/26 06:19:00;;;;;;;;;;;1.70;99.90;;;0.82;100.00;102119.44;5023664;28;19976;-75
2022/01/26 06:21:30;;;;;;;;;;;3.70;99.90;;;0.87;100.00;102121.38;5007471;28;19937;-75
2022/01/26 06:23:58;;;;;;;;;;;1.60;99.90;;;0.84;100.00;102112.59;5007474;28;19936;-75
2022/01/26 06:26:25;;;;;;;;;;;1.70;99.90;;;0.82;100.00;102115.97;4991533;28;19925;-75
2022/01/26 06:28:52;;;;;;;;;;;1.60;99.90;;;0.82;100.00;102114.25;5009611;28;19933;-75
2022/01/26 06:31:19;;;;;;;;;;;3.30;99.90;;;0.84;100.00;102110.00;5007693;28;20392;-75
2022/01/26 06:33:47;;;;;;;;;;;1.80;99.90;;;0.82;100.00;102111.66;5007538;28;19925;-75
2022/01/26 06:36:20;;;;;;;;;;;2.20;99.90;;;0.86;100.00;102123.06;5007237;28;20452;-75
2022/01/26 06:38:50;;;;;;;;;;;1.60;99.90;;;0.89;100.00;102120.59;5009181;28;20305;-75
2022/01/26 06:41:24;;;;;;;;;;;1.70;99.90;;;0.92;100.00;102125.03;5007109;28;20421;-75
2022/01/26 06:43:59;;;;;;;;;;;1.60;99.90;;;0.90;100.00;102127.53;5006874;28;19925;-75
2022/01/26 06:46:41;;;;;;;;;;;1.80;99.90;;;0.90;100.00;102126.69;5007137;28;19984;-75
2022/01/26 06:49:28;;;;;;;;;;;1.80;99.90;;;0.88;100.00;102126.59;5008937;28;19984;-75
2022/01/26 06:51:56;;;;;;;;;;;1.90;99.90;;;0.88;100.00;102129.19;5007258;28;19926;-75
2022/01/26 06:54:24;;;;;;;;;;;1.70;99.90;;;0.91;100.00;102137.09;5006972;28;19929;-75
2022/01/26 06:56:50;;;;;;;;;;;1.90;99.90;;;0.92;100.00;102143.19;5007014;28;19932;-75
2022/01/26 06:59:21;;;;;;;;;;;1.60;99.90;;;0.92;100.00;102150.94;5007094;28;19929;-75
2022/01/26 07:01:48;;;;;;;;;;;1.60;99.90;;;0.92;100.00;102159.59;5006659;28;19952;-75
2022/01/26 07:04:15;;;;;;;;;;;1.70;99.90;;;0.97;100.00;102145.16;5011006;28;19925;-76
2022/01/26 07:06:42;;;;;;;;;;;1.70;99.90;;;0.96;100.00;102158.94;5011556;28;19933;-76
2022/01/26 07:09:09;;;;;;;;;;;1.80;99.90;;;0.94;100.00;102151.91;5011684;28;19936;-76
2022/01/26 07:11:36;;;;;;;;;;;1.80;99.90;;;0.94;100.00;102160.59;5011292;28;19933;-76
2022/01/26 07:14:07;;;;;;;;;;;3.70;99.90;;;1.00;100.00;102154.75;5011712;28;20302;-75
2022/01/26 07:22:06;;;;;;;;;;;1.90;99.90;;;0.85;100.00;102173.13;5010762;28;20302;-75
2022/01/26 07:24:33;;;;;;;;;;;2.70;99.90;;;0.84;100.00;102172.22;5011360;28;19934;-75
2022/01/26 07:27:00;;;;;;;;;;;1.70;99.90;;;0.91;100.00;102183.75;5011820;28;19936;-74
2022/01/26 07:29:48;;;;;;;;;;;1.60;99.90;;;0.88;100.00;102187.94;5011496;28;19948;-75
2022/01/26 07:32:14;;;;;;;;;;;1.80;99.90;;;0.89;100.00;102187.09;5011524;28;19929;-75
2022/01/26 07:34:42;;;;;;;;;;;1.80;99.90;;;0.85;100.00;102199.91;5011213;28;20428;-75
2022/01/26 07:37:12;;;;;;;;;;;1.70;99.90;;;0.86;100.00;102193.03;5010558;28;19930;-74
2022/01/26 07:39:46;;;;;;;;;;;1.70;99.90;;;0.93;100.00;102200.25;5011000;28;19932;-75
2022/01/26 07:42:13;;;;;;;;;;;1.80;99.90;;;0.99;100.00;102199.66;5011020;28;19930;-75
2022/01/26 07:44:44;;;;;;;;;;;1.70;99.90;;;1.02;100.00;102193.72;5009719;28;19936;-75
2022/01/26 07:47:12;;;;;;;;;;;1.70;99.90;;;0.98;100.00;102205.66;5011727;28;19929;-75
2022/01/26 07:49:39;;;;;;;;;;;3.20;99.90;;;0.92;100.00;102203.66;5009690;28;19925;-75
2022/01/26 07:52:06;;;;;;;;;;;1.70;99.90;;;0.93;100.00;102199.38;5010416;28;19925;-75
2022/01/26 07:54:33;;;;;;;;;;;1.80;99.90;;;0.94;100.00;102191.69;5009302;28;19933;-75
2022/01/26 07:57:01;;;;;;;;;;;1.80;99.90;;;0.99;100.00;102207.41;5010262;28;19934;-75
2022/01/26 07:59:28;;;;;;;;;;;1.80;99.90;;;0.89;100.00;102213.03;5009683;28;19929;-75
2022/01/26 08:01:55;;;;;;;;;;;1.80;99.90;;;0.97;100.00;102201.28;5009393;28;19940;-74
2022/01/26 08:04:22;;;;;;;;;;;1.70;99.90;;;0.95;100.00;102195.16;5008678;28;19930;-75
2022/01/26 08:06:50;;;;;;;;;;;1.80;99.90;;;0.96;100.00;102202.09;5008534;28;19925;-77
2022/01/26 08:09:17;;;;;;;;;;;1.90;99.90;;;0.98;100.00;102193.59;5009383;28;20020;-76
2022/01/26 08:11:44;;;;;;;;;;;1.70;99.90;;;1.01;100.00;102198.00;5008939;28;19925;-77
2022/01/26 08:14:11;;;;;;;;;;;1.70;99.90;;;0.99;100.00;102199.66;5008513;28;19930;-75
2022/01/26 08:16:39;;;;;;;;;;;1.70;99.90;;;1.02;100.00;102199.81;5009211;28;19936;-76
2022/01/26 08:19:07;;;;;;;;;;;1.90;99.90;;;1.00;100.00;102206.59;5009461;28;20020;-76
2022/01/26 08:21:34;;;;;;;;;;;1.80;99.90;;;1.05;100.00;102201.63;5025333;28;19926;-75
2022/01/26 08:24:12;;;;;;;;;;;1.90;99.90;;;1.03;100.00;102203.28;4990441;28;19926;-76
2022/01/26 08:26:44;;;;;;;;;;;1.70;99.90;;;0.98;100.00;102206.56;5019508;28;20405;-77
2022/01/26 08:29:26;;;;;;;;;;;1.80;99.90;;;1.04;100.00;102203.34;5020886;28;19929;-76
2022/01/26 08:31:53;;;;;;;;;;;1.70;99.90;;;1.03;100.00;102226.59;5028579;28;20298;-75
2022/01/26 08:34:20;;;;;;;;;;;3.10;99.90;;;0.90;100.00;102232.94;5008211;28;19964;-76
2022/01/26 08:36:48;;;;;;;;;;;1.80;99.90;;;0.94;100.00;102204.66;5009100;28;19935;-76
2022/01/26 08:39:16;;;;;;;;;;;1.80;99.90;;;0.98;100.00;102214.31;5041364;28;20445;-76
2022/01/26 08:41:43;;;;;;;;;;;1.70;99.90;;;1.03;100.00;102237.88;4992470;28;20736;-75
2022/01/26 08:44:10;;;;;;;;;;;1.90;99.90;;;1.01;100.00;102238.63;5017478;28;19926;-75
2022/01/26 08:46:37;;;;;;;;;;;1.90;99.90;;;0.99;100.00;102234.25;4994148;28;20406;-75
2022/01/26 08:49:04;;;;;;;;;;;1.80;99.90;;;0.91;100.00;102226.94;4996835;28;20004;-74
2022/01/26 08:51:31;;;;;;;;;;;2.00;99.90;;;0.92;100.00;102220.94;5003053;28;20418;-76
2022/01/26 08:53:58;;;;;;;;;;;3.20;99.90;;;0.96;100.00;102207.28;4988841;28;19941;-74
2022/01/26 08:56:26;;;;;;;;;;;1.70;99.90;;;0.92;100.00;102215.75;4990621;28;20410;-76
2022/01/26 08:58:54;;;;;;;;;;;2.80;99.90;;;0.87;100.00;102227.63;4990994;28;19933;-75
2022/01/26 09:01:21;;;;;;;;;;;1.80;99.90;;;0.91;100.00;102214.84;4973469;28;19932;-75
2022/01/26 09:03:48;;;;;;;;;;;2.60;99.90;;;0.94;100.00;102202.06;4989944;28;20383;-75
2022/01/26 09:06:16;;;;;;;;;;;1.70;99.90;;;0.97;100.00;102202.19;4990050;28;19965;-76
2022/01/26 09:08:45;;;;;;;;;;;3.60;99.90;;;0.97;100.00;102193.50;4989596;28;19941;-75
2022/01/26 09:11:12;;;;;;;;;;;1.80;99.90;;;0.96;100.00;102204.69;4992799;28;20488;-75
2022/01/26 09:13:39;;;;;;;;;;;2.20;99.90;;;0.97;100.00;102211.66;4991554;28;19939;-77
2022/01/26 09:16:08;;;;;;;;;;;2.30;99.90;;;0.84;100.00;102202.44;5008284;28;19936;-76
2022/01/26 09:19:03;;;;;;;;;;;1.80;99.90;;;0.89;100.00;102208.72;5006023;28;19936;-75
2022/01/26 09:21:24;;;;;;;;;;;1.70;99.90;;;0.85;100.00;102199.91;5002339;28;20039;-75
2022/01/26 09:23:51;;;;;;;;;;;2.90;99.90;;;0.80;100.00;102193.63;4990612;28;20411;-76
2022/01/26 09:26:19;;;;;;;;;;;1.90;99.90;;;0.72;100.00;102189.81;5004422;28;19929;-75
2022/01/26 09:28:46;;;;;;;;;;;1.70;99.90;;;0.72;100.00;102182.06;5039866;28;19937;-76
2022/01/26 09:31:15;;;;;;;;;;;1.70;99.90;;;0.77;100.00;102174.47;5021560;28;20092;-77
2022/01/26 09:33:42;;;;;;;;;;;3.10;99.90;;;0.78;100.00;102182.31;4999752;28;20025;-77
2022/01/26 09:36:09;;;;;;;;;;;3.60;99.90;;;0.80;100.00;102185.00;5009174;28;20391;-76
2022/01/26 09:38:38;;;;;;;;;;;1.70;99.90;;;0.77;100.00;102193.50;5006891;28;20020;-77
2022/01/26 09:41:05;;;;;;;;;;;1.70;99.90;;;0.78;100.00;102202.16;5007452;28;20060;-75
2022/01/26 09:43:32;;;;;;;;;;;1.80;99.90;;;0.80;100.00;102204.00;5007000;28;20027;-75
2022/01/26 09:45:59;;;;;;;;;;;1.60;99.90;;;0.78;100.00;102200.44;5007466;28;19925;-76
2022/01/26 09:48:26;;;;;;;;;;;1.70;99.90;;;0.70;100.00;102210.47;5007780;28;19933;-77
2022/01/26 09:50:55;;;;;;;;;;;1.60;99.90;;;0.77;100.00;102192.59;5008259;28;19934;-76
2022/01/26 09:53:28;;;;;;;;;;;1.50;99.90;;;0.79;100.00;102194.44;5008831;28;20319;-75
2022/01/26 09:55:56;;;;;;;;;;;1.50;99.90;;;0.82;100.00;102198.91;5008608;28;19933;-76
2022/01/26 09:58:23;;;;;;;;;;;3.30;99.90;;;0.79;100.00;102197.03;5004561;28;20283;-75
2022/01/26 10:01:01;;;;;;;;;;;1.50;99.90;;;0.73;100.00;102198.47;5035845;28;20294;-74
2022/01/26 10:03:33;;;;;;;;;;;1.70;99.90;;;0.77;100.00;102201.28;5006937;28;19925;-75
2022/01/26 10:06:03;;;;;;;;;;;3.60;99.90;;;0.72;100.00;102207.97;5007219;28;20032;-75
2022/01/26 10:19:07;;;;;;;;;;;1.80;99.90;;;0.69;100.00;102249.25;5007686;28;19964;-75
2022/01/26 10:21:51;;;;;;;;;;;1.50;99.90;;;0.73;100.00;102248.59;5008603;28;19925;-75
2022/01/26 10:24:27;;;;;;;;;;;1.60;99.90;;;0.67;100.00;102250.88;4991090;28;19929;-75
2022/01/26 10:26:59;;;;;;;;;;;1.60;99.90;;;0.69;100.00;102250.16;5007378;28;19933;-75
2022/01/26 10:29:36;;;;;;;;;;;4.60;99.90;;;0.70;100.00;102258.78;4930175;28;19934;-75
2022/01/26 10:32:12;;;;;;;;;;;1.60;99.90;;;0.79;100.00;102250.59;5006097;28;20000;-75
2022/01/26 10:35:01;;;;;;;;;;;1.60;99.90;;;0.84;100.00;102244.78;5032473;28;19979;-75
2022/01/26 10:37:29;;;;;;;;;;;3.20;99.90;;;0.76;100.00;102243.56;5006071;28;19929;-75
2022/01/26 10:40:18;;;;;;;;;;;1.60;99.90;;;0.81;100.00;102236.88;5042057;28;19971;-75
2022/01/26 10:42:58;;;;;;;;;;;1.60;99.90;;;0.85;100.00;102263.81;5041245;28;20032;-75
2022/01/26 10:46:02;;;;;;;;;;;1.60;99.90;;;0.88;100.00;102234.59;5023852;28;20447;-75
2022/01/26 10:48:42;;;;;;;;;;;1.80;99.90;;;0.96;100.00;102217.66;5010400;28;19925;-75
2022/01/26 10:51:39;;;;;;;;;;;2.60;99.90;;;0.98;100.00;102227.28;5009721;28;19930;-75
2022/01/26 10:54:21;;;;;;;;;;;1.70;99.90;;;0.98;100.00;102236.75;5035362;28;19925;-76
2022/01/26 10:56:51;;;;;;;;;;;1.80;99.90;;;0.97;100.00;102238.47;5045879;28;19925;-76
2022/01/26 10:59:19;;;;;;;;;;;1.90;99.90;;;1.00;100.00;102229.94;5010744;28;20333;-74
2022/01/26 11:01:46;;;;;;;;;;;1.90;99.90;;;1.00;100.00;102232.53;5041328;28;19934;-74
2022/01/26 11:04:13;;;;;;;;;;;3.70;99.90;;;1.14;100.00;102227.97;5040120;28;19937;-74
2022/01/26 11:06:43;;;;;;;;;;;1.90;99.90;;;1.14;100.00;102207.25;5009384;28;19930;-76
2022/01/26 11:09:15;;;;;;;;;;;3.10;99.90;;;1.13;100.00;102218.44;5040237;28;20031;-75
2022/01/26 11:11:42;;;;;;;;;;;1.90;99.90;;;1.12;100.00;102225.31;5039085;28;19979;-75
2022/01/26 11:14:24;;;;;;;;;;;2.10;99.90;;;1.17;100.00;102228.13;5008734;28;20339;-78
2022/01/26 11:16:54;;;;;;;;;;;2.30;99.90;;;1.06;100.00;102204.31;5008604;28;19961;-75
2022/01/26 11:19:23;;;;;;;;;;;2.10;99.90;;;1.09;100.00;102203.53;5008828;28;19937;-74
2022/01/26 11:21:53;;;;;;;;;;;5.00;99.90;;;1.24;100.00;102203.34;4991395;28;20323;-76
2022/01/26 11:24:47;;;;;;;;;;;2.10;99.90;;;1.24;100.00;102208.53;5008738;28;19926;-76
2022/01/26 11:27:16;;;;;;;;;;;2.00;99.90;;;1.26;100.00;102217.25;5007303;28;19929;-75
2022/01/26 11:29:47;;;;;;;;;;;2.10;99.90;;;1.25;100.00;102211.19;5010193;28;20473;-77
2022/01/26 11:32:31;;;;;;;;;;;2.40;99.90;;;1.34;100.00;102205.53;5008567;28;20032;-77
2022/01/26 11:34:58;;;;;;;;;;;2.20;99.90;;;1.32;100.00;102207.13;5010062;28;19948;-77
2022/01/26 11:37:41;;;;;;;;;;;2.40;99.90;;;1.38;100.00;102207.44;5008907;28;20341;-76
2022/01/26 11:45:31;;;;;;;;;;;2.70;99.90;;;1.38;100.00;102203.94;5008614;28;19932;-76
2022/01/26 11:48:21;;;;;;;;;;;2.30;99.90;;;1.38;100.00;102212.63;5010091;28;19925;-76
2022/01/26 11:51:01;;;;;;;;;;;2.30;99.90;;;1.32;100.00;102201.94;5007622;28;19935;-76
2022/01/26 11:53:31;;;;;;;;;;;2.20;99.90;;;1.26;100.00;102212.97;4991742;28;19936;-76
2022/01/26 11:56:07;;;;;;;;;;;3.30;99.90;;;1.22;100.00;102211.03;5008229;28;19940;-76
2022/01/26 11:58:40;;;;;;;;;;;3.60;99.90;;;1.27;100.00;102203.47;5009234;28;19930;-76
2022/01/26 12:03:43;;;;;;;;;;;4.00;99.90;;;1.30;100.00;102198.41;4991592;28;19929;-75
2022/01/26 12:06:24;;;;;;;;;;;3.40;99.90;;;1.31;100.00;102191.53;5009559;28;20386;-75
2022/01/26 12:09:05;;;;;;;;;;;2.00;99.90;;;1.31;100.00;102196.72;5008666;28;19925;-76
2022/01/26 12:11:32;;;;;;;;;;;2.10;99.90;;;1.26;100.00;102202.59;5001468;28;19930;-76
2022/01/26 12:14:07;;;;;;;;;;;2.10;99.90;;;1.22;100.00;102210.16;4988688;28;19930;-76
2022/01/26 12:16:40;;;;;;;;;;;2.10;99.90;;;1.21;100.00;102203.22;4989069;28;19949;-76
2022/01/26 12:33:48;;;;;;;;;;;2.90;99.90;;;1.35;100.00;102193.44;5014578;28;19933;-76
2022/01/26 12:36:29;;;;;;;;;;;2.20;99.90;;;1.39;100.00;102198.81;5012375;28;20012;-76
2022/01/26 12:39:01;;;;;;;;;;;3.20;99.90;;;1.27;100.00;102201.78;5014721;28;19934;-76
2022/01/26 12:41:34;;;;;;;;;;;2.10;99.90;;;1.38;100.00;102198.75;5003323;28;20026;-76
2022/01/26 12:44:10;;;;;;;;;;;2.00;99.90;;;1.46;100.00;102186.09;5001500;28;20392;-76
2022/01/26 12:46:41;;;;;;;;;;;2.30;99.90;;;1.42;100.00;102185.97;5019643;28;19936;-76
2022/01/26 12:49:15;;;;;;;;;;;2.80;99.90;;;1.44;100.00;102179.97;4988681;28;20386;-76
2022/01/26 12:51:51;;;;;;;;;;;2.20;99.90;;;1.44;100.00;102177.38;4988671;28;19929;-76
2022/01/26 12:54:43;;;;;;;;;;;2.10;99.90;;;1.51;100.00;102182.03;5015294;28;19921;-76
2022/01/26 12:57:12;;;;;;;;;;;2.70;99.90;;;1.51;100.00;102190.69;5003620;28;20354;-76
2022/01/26 12:59:39;;;;;;;;;;;2.90;99.90;;;1.57;100.00;102203.03;4987976;28;19933;-76
2022/01/26 13:02:06;;;;;;;;;;;2.70;99.90;;;1.54;100.00;102197.72;4987814;28;20076;-76
2022/01/26 13:04:33;;;;;;;;;;;2.70;99.90;;;1.53;100.00;102190.75;5002873;28;19930;-76
2022/01/26 13:07:00;;;;;;;;;;;2.10;99.90;;;1.58;100.00;102185.75;5020645;28;19933;-76
2022/01/26 13:09:39;;;;;;;;;;;2.10;99.90;;;1.55;100.00;102197.75;4989214;28;19933;-74
2022/01/26 13:12:06;;;;;;;;;;;3.90;99.90;;;1.66;100.00;102187.84;5018588;28;19933;-75
2022/01/26 13:14:53;;;;;;;;;;;2.10;99.90;;;1.66;100.00;102197.34;4988009;28;19930;-75
2022/01/26 13:17:48;;;;;;;;;;;4.80;99.90;;;1.72;100.00;102204.50;5011265;28;19921;-75
2022/01/26 13:20:34;;;;;;;;;;;2.30;99.90;;;1.69;100.00;102203.56;4988711;28;19974;-75
2022/01/26 13:36:48;;;;;;;;;;;2.30;99.90;;;1.80;100.00;102221.28;5006467;28;20168;-75
2022/01/26 13:53:06;;;;;;;;;;;2.40;99.90;;;1.87;100.00;102228.50;5006562;28;19939;-76
2022/01/26 13:56:01;;;;;;;;;;;2.60;99.90;;;1.91;100.00;102225.19;5004689;28;19933;-76
2022/01/26 14:01:00;;;;;;;;;;;2.70;99.90;;;1.96;100.00;102231.50;5007836;28;19933;-77
2022/01/26 14:03:30;;;;;;;;;;;3.80;99.90;;;1.96;100.00;102222.81;5005524;28;20456;-76
2022/01/26 14:06:06;;;;;;;;;;;2.50;99.90;;;1.99;100.00;102220.31;5005881;28;19937;-75
2022/01/26 14:08:33;;;;;;;;;;;2.60;99.90;;;2.03;100.00;102223.94;5006595;28;20397;-76
2022/01/26 14:11:00;;;;;;;;;;;2.70;99.90;;;1.98;100.00;102224.66;5005846;28;19936;-76